Quemado, New Mexico
Current Conditions -  °F | °C
As of 9:15 AM on Sunday 23 Nov 2014 (Local Time) from KJTC Reporting Station
Broken Clouds Broken Clouds  
Wind Chill: 25°   Ceiling: 3300
Heat Index: 37°   Visibility: 10mi
Dew Point: 23°   Wind: 32mph
Humidity: 56%   Direction: 310°NW
Pressure: 30.07"   Gusts: 43mph
Location:  34.34°N, 108.49°W
Report Text: KJTC 231615Z AUTO 31028G37KT 10SM BKN033 BKN044 03/M05 A3007 RMK AO2
Loading
Personal Weather Stations






























Interactive Weather Map New forecast layout! Learn more

10-Day Weather Forecast

Advertisements
Track Severe Weather on mobile